createdAt,value
2022-11-26T00:01:43.830Z,51.99
2022-11-26T00:04:10.240Z,52.10
2022-11-26T00:06:40.028Z,51.78
2022-11-26T00:09:06.558Z,51.74
2022-11-26T00:11:33.132Z,51.77
2022-11-26T00:13:59.469Z,52.18
2022-11-26T00:16:25.987Z,52.02
2022-11-26T00:18:52.366Z,51.85
2022-11-26T00:21:20.806Z,51.83
2022-11-26T00:23:47.176Z,51.83
2022-11-26T00:26:14.671Z,51.96
2022-11-26T00:28:41.002Z,51.94
2022-11-26T00:31:07.863Z,51.87
2022-11-26T00:33:34.196Z,52.04
2022-11-26T00:36:19.473Z,51.82
2022-11-26T00:38:46.566Z,52.13
2022-11-26T00:41:17.267Z,52.09
2022-11-26T00:43:44.031Z,51.90
2022-11-26T00:46:14.209Z,51.73
2022-11-26T00:48:40.639Z,51.73
2022-11-26T00:51:08.356Z,51.82
2022-11-26T00:53:34.681Z,51.64
2022-11-26T00:56:01.011Z,51.82
2022-11-26T00:58:28.141Z,52.00
2022-11-26T01:00:54.868Z,51.70
2022-11-26T01:03:21.258Z,51.91
2022-11-26T01:05:51.475Z,51.79
2022-11-26T01:08:31.258Z,51.66
2022-11-26T01:10:58.209Z,51.84
2022-11-26T01:13:24.548Z,51.71
2022-11-26T01:15:50.856Z,51.85
2022-11-26T01:18:18.892Z,51.71
2022-11-26T01:20:45.227Z,51.72
2022-11-26T01:23:12.291Z,51.52
2022-11-26T01:25:38.617Z,51.86
2022-11-26T01:28:05.019Z,51.69
2022-11-26T01:30:31.665Z,51.67
2022-11-26T01:32:57.982Z,51.86
2022-11-26T01:35:24.300Z,51.64
2022-11-26T01:37:50.617Z,51.71
2022-11-26T01:40:25.687Z,51.73
2022-11-26T01:43:18.317Z,51.65
2022-11-26T01:45:44.688Z,51.65
2022-11-26T01:48:24.235Z,51.73
2022-11-26T01:50:55.176Z,51.81
2022-11-26T01:53:27.848Z,51.83
2022-11-26T01:55:58.388Z,51.34
2022-11-26T01:58:27.309Z,51.61
2022-11-26T02:00:53.640Z,51.91
2022-11-26T02:03:22.560Z,51.76
2022-11-26T02:05:51.597Z,51.64
2022-11-26T02:08:17.940Z,51.85
2022-11-26T02:10:44.257Z,51.95
2022-11-26T02:13:10.589Z,51.68
2022-11-26T02:15:57.181Z,51.91
2022-11-26T02:18:23.497Z,52.00
2022-11-26T02:20:51.539Z,51.77
2022-11-26T02:23:23.805Z,51.77
2022-11-26T02:25:58.795Z,51.77
2022-11-26T02:28:33.301Z,51.74
2022-11-26T02:30:59.549Z,51.82
2022-11-26T02:33:44.459Z,51.75
2022-11-26T02:36:24.974Z,51.62
2022-11-26T02:38:51.291Z,51.64
2022-11-26T02:41:17.613Z,51.65
2022-11-26T02:43:43.928Z,51.81
2022-11-26T02:46:11.808Z,51.57
2022-11-26T02:48:42.112Z,51.96
2022-11-26T02:51:10.135Z,51.94
2022-11-26T02:53:36.485Z,51.64
2022-11-26T02:56:06.973Z,51.90
2022-11-26T02:58:33.290Z,52.00
2022-11-26T03:01:00.013Z,51.60
2022-11-26T03:03:29.957Z,51.63
2022-11-26T03:05:57.600Z,51.67
2022-11-26T03:08:24.091Z,51.87
2022-11-26T03:10:50.450Z,51.67
2022-11-26T03:13:16.793Z,51.85
2022-11-26T03:15:43.150Z,51.50
2022-11-26T03:18:09.483Z,51.77
2022-11-26T03:20:35.855Z,51.84
2022-11-26T03:23:02.217Z,51.75
2022-11-26T03:25:28.556Z,51.80
2022-11-26T03:27:54.873Z,51.67
2022-11-26T03:30:21.245Z,51.78
2022-11-26T03:32:47.562Z,51.57
2022-11-26T03:35:13.912Z,51.73
2022-11-26T03:37:40.238Z,51.95
2022-11-26T03:40:06.999Z,51.48
2022-11-26T03:42:33.309Z,51.72
2022-11-26T03:44:59.623Z,51.75
2022-11-26T03:47:27.223Z,51.89
2022-11-26T03:49:53.551Z,51.71
2022-11-26T03:52:20.065Z,51.81
2022-11-26T03:54:46.392Z,51.99
2022-11-26T03:57:12.720Z,52.25
2022-11-26T03:59:39.039Z,51.67
2022-11-26T04:02:06.138Z,51.73
2022-11-26T04:04:32.464Z,52.00
2022-11-26T04:06:58.776Z,51.64
2022-11-26T04:09:25.085Z,51.89
2022-11-26T04:11:51.403Z,52.12
2022-11-26T04:14:17.740Z,51.86
2022-11-26T04:16:44.119Z,52.22
2022-11-26T04:19:10.588Z,52.00
2022-11-26T04:21:37.157Z,52.07
2022-11-26T04:24:03.539Z,52.05
2022-11-26T04:26:29.872Z,51.99
2022-11-26T04:28:56.185Z,51.72
2022-11-26T04:31:22.540Z,51.85
2022-11-26T04:33:48.865Z,52.24
2022-11-26T04:36:15.168Z,52.30
2022-11-26T04:38:41.533Z,52.32
2022-11-26T04:41:07.852Z,52.60
2022-11-26T04:43:34.160Z,52.30
2022-11-26T04:46:00.552Z,52.36
2022-11-26T04:48:26.900Z,52.38
2022-11-26T04:50:53.217Z,52.61
2022-11-26T04:53:21.854Z,52.37
2022-11-26T04:55:51.029Z,52.26
2022-11-26T04:58:17.575Z,52.40
2022-11-26T05:00:47.380Z,52.67
2022-11-26T05:03:16.657Z,52.93
2022-11-26T05:05:43.016Z,52.66
2022-11-26T05:08:09.326Z,53.11
2022-11-26T05:10:35.660Z,53.05
2022-11-26T05:13:01.973Z,53.02
2022-11-26T05:15:28.305Z,52.74
2022-11-26T05:17:54.617Z,53.10
2022-11-26T05:20:20.981Z,53.04
2022-11-26T05:22:47.302Z,52.92
2022-11-26T05:25:13.651Z,53.13
2022-11-26T05:27:40.050Z,53.05
2022-11-26T05:30:07.385Z,52.97
2022-11-26T05:32:33.702Z,53.35
2022-11-26T05:35:00.456Z,53.04
2022-11-26T05:37:26.895Z,53.06
2022-11-26T05:39:53.214Z,53.02
2022-11-26T05:42:19.549Z,53.36
2022-11-26T05:44:45.860Z,53.04
2022-11-26T05:47:12.184Z,53.21
2022-11-26T05:49:38.501Z,53.24
2022-11-26T05:52:04.835Z,53.31
2022-11-26T05:54:31.159Z,53.05
2022-11-26T05:57:00.270Z,53.10
2022-11-26T05:59:27.013Z,53.32
2022-11-26T06:01:53.411Z,53.04
2022-11-26T06:04:19.772Z,53.30
2022-11-26T06:06:46.129Z,53.24
2022-11-26T06:09:12.502Z,53.16
2022-11-26T06:11:38.823Z,53.06
2022-11-26T06:14:05.133Z,53.28
2022-11-26T06:16:31.495Z,53.33
2022-11-26T06:18:59.134Z,53.18
2022-11-26T06:21:25.448Z,53.14
2022-11-26T06:23:57.538Z,53.26
2022-11-26T06:26:25.555Z,53.17
2022-11-26T06:28:52.254Z,52.91
2022-11-26T06:31:18.686Z,53.11
2022-11-26T06:33:45.036Z,53.14
2022-11-26T06:36:11.369Z,53.03
2022-11-26T06:38:37.725Z,52.90
2022-11-26T06:41:05.094Z,53.07
2022-11-26T06:43:31.423Z,53.25
2022-11-26T06:46:07.651Z,53.06
2022-11-26T06:48:34.170Z,53.14
2022-11-26T06:51:07.240Z,53.25
2022-11-26T06:53:33.557Z,53.40
2022-11-26T06:56:01.073Z,53.27
2022-11-26T06:58:27.385Z,53.24
2022-11-26T07:00:54.049Z,53.30
2022-11-26T07:03:24.262Z,53.26
2022-11-26T07:05:51.853Z,53.06
2022-11-26T07:08:18.170Z,52.94
2022-11-26T07:10:48.842Z,53.14
2022-11-26T07:13:15.592Z,52.83
2022-11-26T07:15:41.951Z,52.96
2022-11-26T07:18:08.313Z,52.83
2022-11-26T07:20:35.529Z,52.85
2022-11-26T07:23:02.884Z,52.95
2022-11-26T07:25:29.802Z,52.98
2022-11-26T07:27:56.171Z,52.79
2022-11-26T07:30:22.605Z,53.02
2022-11-26T07:32:48.919Z,52.79
2022-11-26T07:35:17.931Z,52.70
2022-11-26T07:37:44.445Z,52.93
2022-11-26T07:40:10.841Z,52.80
2022-11-26T07:42:37.155Z,52.89
2022-11-26T07:45:04.538Z,52.81
2022-11-26T07:47:30.919Z,52.79
2022-11-26T07:49:57.245Z,52.89
2022-11-26T07:52:23.588Z,52.70
2022-11-26T07:54:49.945Z,52.48
2022-11-26T07:57:16.344Z,52.86
2022-11-26T07:59:42.679Z,52.95
2022-11-26T08:02:11.877Z,52.81
2022-11-26T08:04:38.445Z,53.13
2022-11-26T08:07:04.986Z,53.42
2022-11-26T08:09:31.302Z,53.54
2022-11-26T08:11:57.617Z,53.59
2022-11-26T08:14:23.929Z,53.23
2022-11-26T08:16:50.355Z,53.41
2022-11-26T08:19:16.702Z,53.45
2022-11-26T08:21:43.020Z,53.27
2022-11-26T08:24:15.549Z,53.28
2022-11-26T08:26:44.074Z,53.47
2022-11-26T08:29:11.029Z,53.49
2022-11-26T08:31:45.195Z,53.16
2022-11-26T08:34:14.077Z,53.58
2022-11-26T08:36:40.402Z,53.35
2022-11-26T08:39:06.704Z,53.94
2022-11-26T08:41:33.017Z,54.19
2022-11-26T08:44:08.088Z,54.32
2022-11-26T08:46:38.272Z,54.26
2022-11-26T08:49:04.862Z,54.23
2022-11-26T08:51:31.196Z,54.09
2022-11-26T08:53:57.508Z,54.75
2022-11-26T08:56:24.025Z,54.93
2022-11-26T08:58:51.471Z,55.04
2022-11-26T09:01:18.746Z,54.68
2022-11-26T09:03:47.319Z,55.06
2022-11-26T09:06:13.635Z,55.61
2022-11-26T09:08:58.661Z,55.51
2022-11-26T09:11:24.988Z,55.09
2022-11-26T09:13:51.317Z,55.54
2022-11-26T09:16:17.752Z,55.55
2022-11-26T09:18:44.096Z,55.28
2022-11-26T09:21:10.422Z,55.78
2022-11-26T09:23:36.733Z,55.94
2022-11-26T09:26:03.039Z,55.82
2022-11-26T09:28:29.347Z,56.19
2022-11-26T09:30:58.939Z,56.11
2022-11-26T09:33:25.247Z,55.83
2022-11-26T09:35:51.624Z,55.80
2022-11-26T09:38:17.973Z,56.02
2022-11-26T09:40:51.694Z,56.36
2022-11-26T09:43:28.075Z,56.16
2022-11-26T09:45:56.060Z,50.22
2022-11-26T09:48:22.937Z,47.91
2022-11-26T09:50:49.585Z,47.21
2022-11-26T09:53:17.633Z,46.40
2022-11-26T09:55:44.848Z,46.28
2022-11-26T09:58:34.286Z,48.40
2022-11-26T10:01:00.770Z,48.77
2022-11-26T10:03:30.055Z,50.61
2022-11-26T10:06:01.943Z,51.02
2022-11-26T10:08:46.830Z,51.06
2022-11-26T10:11:18.816Z,51.21
2022-11-26T10:13:57.181Z,51.69
2022-11-26T10:16:43.563Z,52.99
2022-11-26T10:19:14.913Z,53.17
2022-11-26T10:24:29.424Z,53.74
2022-11-26T10:26:55.756Z,53.63
2022-11-26T10:29:23.334Z,53.71
2022-11-26T10:31:49.996Z,53.91
2022-11-26T10:34:20.729Z,53.92
2022-11-26T10:36:47.128Z,54.32
2022-11-26T10:39:14.727Z,54.09
2022-11-26T10:41:41.064Z,54.27
2022-11-26T10:44:25.881Z,54.17
2022-11-26T10:46:52.292Z,54.41
2022-11-26T10:49:23.875Z,54.36
2022-11-26T10:51:50.492Z,54.50
2022-11-26T10:54:35.680Z,54.31
2022-11-26T10:57:02.759Z,54.29
2022-11-26T10:59:29.998Z,54.33
2022-11-26T11:02:00.955Z,54.41
2022-11-26T11:04:30.752Z,54.40
2022-11-26T11:06:57.245Z,54.55
2022-11-26T11:09:33.675Z,54.48
2022-11-26T11:12:11.942Z,54.42
2022-11-26T11:14:43.125Z,54.46
2022-11-26T11:17:19.420Z,54.42
2022-11-26T11:19:45.732Z,54.43
2022-11-26T11:22:21.173Z,54.58
2022-11-26T11:24:47.493Z,54.72
2022-11-26T11:27:23.537Z,54.44
2022-11-26T11:29:49.965Z,54.62
2022-11-26T11:32:48.817Z,54.71
2022-11-26T11:35:25.019Z,54.58
2022-11-26T11:37:52.178Z,54.87
2022-11-26T11:40:23.374Z,54.80
2022-11-26T11:42:50.739Z,54.74
2022-11-26T11:45:28.398Z,54.92
2022-11-26T11:47:57.102Z,55.15
2022-11-26T11:50:23.382Z,54.66
2022-11-26T11:52:54.651Z,55.05
2022-11-26T11:55:39.550Z,55.00
2022-11-26T11:58:10.201Z,54.75
2022-11-26T12:00:39.773Z,54.76
2022-11-26T12:03:26.527Z,54.63
2022-11-26T12:06:11.719Z,54.88
2022-11-26T12:08:47.096Z,54.77
2022-11-26T12:11:13.343Z,54.53
2022-11-26T12:13:45.435Z,54.62
2022-11-26T12:16:11.827Z,54.56
2022-11-26T12:18:48.814Z,54.81
2022-11-26T12:21:16.067Z,54.63
2022-11-26T12:23:49.586Z,54.83
2022-11-26T12:26:23.477Z,52.67
2022-11-26T12:28:55.159Z,53.43
2022-11-26T12:31:35.182Z,53.75
2022-11-26T12:34:08.373Z,53.84
2022-11-26T12:36:39.441Z,54.08
2022-11-26T12:39:08.604Z,54.04
2022-11-26T12:41:37.504Z,54.15
2022-11-26T12:44:18.139Z,54.22
2022-11-26T12:46:44.557Z,54.45
2022-11-26T12:49:24.737Z,54.53
2022-11-26T12:51:54.003Z,54.37
2022-11-26T12:54:28.065Z,54.30
2022-11-26T12:56:55.959Z,54.35
2022-11-26T12:59:23.719Z,54.33
2022-11-26T13:01:50.432Z,54.36
2022-11-26T13:07:07.237Z,54.36
2022-11-26T13:09:52.561Z,54.28
2022-11-26T13:12:22.940Z,54.32
2022-11-26T13:14:53.724Z,54.25
2022-11-26T13:17:21.212Z,54.49
2022-11-26T13:19:48.174Z,54.34
2022-11-26T13:22:32.967Z,54.31
2022-11-26T13:24:59.200Z,54.49
2022-11-26T13:27:32.029Z,54.25
2022-11-26T13:30:17.861Z,54.30
2022-11-26T13:32:49.930Z,54.50
2022-11-26T13:35:22.267Z,54.27
2022-11-26T13:38:01.363Z,54.39
2022-11-26T13:40:43.764Z,54.37
2022-11-26T13:43:28.930Z,54.47
2022-11-26T13:46:18.942Z,54.26
2022-11-26T13:48:52.249Z,54.22
2022-11-26T13:51:21.521Z,54.29
2022-11-26T13:54:06.838Z,54.13
2022-11-26T13:56:33.899Z,53.92
2022-11-26T13:59:06.043Z,52.91
2022-11-26T14:01:40.522Z,53.40
2022-11-26T14:04:10.681Z,53.34
2022-11-26T14:06:37.069Z,53.07
2022-11-26T14:09:03.451Z,53.55
2022-11-26T14:11:41.729Z,52.63
2022-11-26T14:14:26.491Z,52.04
2022-11-26T14:17:02.239Z,52.78
2022-11-26T14:19:40.889Z,52.87
2022-11-26T14:22:07.780Z,53.23
2022-11-26T14:24:49.392Z,53.46
2022-11-26T14:27:15.988Z,53.65
2022-11-26T14:29:42.712Z,53.56
2022-11-26T14:32:11.043Z,53.65
2022-11-26T14:34:39.481Z,53.55
2022-11-26T14:37:12.247Z,53.73
2022-11-26T14:39:38.562Z,53.67
2022-11-26T14:42:06.606Z,53.61
2022-11-26T14:44:33.107Z,49.56
2022-11-26T14:46:59.537Z,50.62
2022-11-26T14:49:30.801Z,52.33
2022-11-26T14:51:57.117Z,51.66
2022-11-26T14:54:30.784Z,52.13
2022-11-26T14:56:57.296Z,52.03
2022-11-26T14:59:23.653Z,52.31
2022-11-26T15:01:49.990Z,52.39
2022-11-26T15:04:26.302Z,52.41
2022-11-26T15:06:52.627Z,52.39
2022-11-26T15:09:20.059Z,52.36
2022-11-26T15:11:47.591Z,52.76
2022-11-26T15:14:18.183Z,52.50
2022-11-26T15:16:44.561Z,52.41
2022-11-26T15:19:12.394Z,52.46
2022-11-26T15:21:39.677Z,52.41
2022-11-26T15:24:07.070Z,52.56
2022-11-26T15:26:33.533Z,52.80
2022-11-26T15:28:59.876Z,52.66
2022-11-26T15:31:38.930Z,52.79
2022-11-26T15:34:05.257Z,52.41
2022-11-26T15:36:31.604Z,52.55
2022-11-26T15:39:03.037Z,52.66
2022-11-26T15:41:29.448Z,52.64
2022-11-26T15:43:56.524Z,52.79
2022-11-26T15:46:23.848Z,52.63
2022-11-26T15:48:54.064Z,52.59
2022-11-26T15:51:30.714Z,52.64
2022-11-26T15:54:00.705Z,52.59
2022-11-26T15:56:30.607Z,52.79
2022-11-26T15:58:57.314Z,52.95
2022-11-26T16:01:24.758Z,52.76
2022-11-26T16:03:51.520Z,52.79
2022-11-26T16:06:34.123Z,52.92
2022-11-26T16:09:05.211Z,53.04
2022-11-26T16:11:33.799Z,52.74
2022-11-26T16:14:20.002Z,52.96
2022-11-26T16:16:46.499Z,53.01
2022-11-26T16:19:12.883Z,52.88
2022-11-26T16:21:39.231Z,53.01
2022-11-26T16:24:06.333Z,53.02
2022-11-26T16:26:51.559Z,52.93
2022-11-26T16:29:18.592Z,52.98
2022-11-26T16:31:44.993Z,52.76
2022-11-26T16:34:11.669Z,53.12
2022-11-26T16:36:40.155Z,53.00
2022-11-26T16:39:06.480Z,53.01
2022-11-26T16:41:32.794Z,53.03
2022-11-26T16:43:59.162Z,53.05
2022-11-26T16:46:27.582Z,52.83
2022-11-26T16:48:53.994Z,52.88
2022-11-26T16:51:20.948Z,52.97
2022-11-26T16:53:47.272Z,53.02
2022-11-26T16:56:20.982Z,52.83
2022-11-26T16:58:47.336Z,53.01
2022-11-26T17:01:13.655Z,53.07
2022-11-26T17:03:40.079Z,53.13
2022-11-26T17:06:13.498Z,53.12
2022-11-26T17:08:40.571Z,53.02
2022-11-26T17:11:10.169Z,53.05
2022-11-26T17:13:36.509Z,53.11
2022-11-26T17:16:04.340Z,53.26
2022-11-26T17:18:30.698Z,53.21
2022-11-26T17:20:57.012Z,53.56
2022-11-26T17:23:23.344Z,53.34
2022-11-26T17:25:51.287Z,53.11
2022-11-26T17:28:17.641Z,53.23
2022-11-26T17:30:44.097Z,53.63
2022-11-26T17:33:10.472Z,53.56
2022-11-26T17:35:36.897Z,53.54
2022-11-26T17:38:03.790Z,54.05
2022-11-26T17:40:30.120Z,53.51
2022-11-26T17:42:56.455Z,54.10
2022-11-26T17:45:22.802Z,53.71
2022-11-26T17:47:49.123Z,54.62
2022-11-26T17:50:22.460Z,54.78
2022-11-26T17:52:49.437Z,54.61
2022-11-26T17:55:15.933Z,55.09
2022-11-26T17:57:42.255Z,55.40
2022-11-26T18:00:11.485Z,55.61
2022-11-26T18:02:37.872Z,55.39
2022-11-26T18:05:04.275Z,55.36
2022-11-26T18:07:30.669Z,55.10
2022-11-26T18:09:57.895Z,55.06
2022-11-26T18:12:25.733Z,54.92
2022-11-26T18:14:52.852Z,54.86
2022-11-26T18:17:19.364Z,55.54
2022-11-26T18:19:45.955Z,55.08
2022-11-26T18:22:15.831Z,55.05
2022-11-26T18:24:43.412Z,55.41
2022-11-26T18:27:10.733Z,55.25
2022-11-26T18:29:37.495Z,55.24
2022-11-26T18:32:03.993Z,55.31
2022-11-26T18:34:30.311Z,55.65
2022-11-26T18:36:56.675Z,55.23
2022-11-26T18:39:23.002Z,55.42
2022-11-26T18:41:49.334Z,55.31
2022-11-26T18:44:15.656Z,55.07
2022-11-26T18:46:41.978Z,55.09
2022-11-26T18:49:08.313Z,54.59
2022-11-26T18:51:34.625Z,54.59
2022-11-26T18:54:01.364Z,54.46
2022-11-26T18:56:27.746Z,54.62
2022-11-26T18:58:54.062Z,54.25
2022-11-26T19:01:21.336Z,54.45
2022-11-26T19:03:47.682Z,53.85
2022-11-26T19:06:14.636Z,52.52
2022-11-26T19:08:40.965Z,50.41
2022-11-26T19:11:08.198Z,51.27
2022-11-26T19:13:34.538Z,51.86
2022-11-26T19:16:00.892Z,50.85
2022-11-26T19:18:27.208Z,50.99
2022-11-26T19:20:53.901Z,51.28
2022-11-26T19:23:24.283Z,51.85
2022-11-26T19:25:50.945Z,51.54
2022-11-26T19:28:17.378Z,51.93
2022-11-26T19:30:43.802Z,51.97
2022-11-26T19:33:10.254Z,51.98
2022-11-26T19:35:39.555Z,52.49
2022-11-26T19:38:05.881Z,52.47
2022-11-26T19:40:32.249Z,52.36
2022-11-26T19:42:58.580Z,52.83
2022-11-26T19:45:24.938Z,52.83
2022-11-26T19:47:51.302Z,52.80
2022-11-26T19:50:17.639Z,52.77
2022-11-26T19:52:47.815Z,52.85
2022-11-26T19:55:14.444Z,52.63
2022-11-26T19:57:40.762Z,52.79
2022-11-26T20:00:07.348Z,53.13
2022-11-26T20:02:33.917Z,53.20
2022-11-26T20:05:00.312Z,53.11
2022-11-26T20:07:26.702Z,53.61
2022-11-26T20:09:53.104Z,53.30
2022-11-26T20:12:19.432Z,53.12
2022-11-26T20:14:48.855Z,53.23
2022-11-26T20:17:15.203Z,53.35
2022-11-26T20:19:41.822Z,53.55
2022-11-26T20:22:08.377Z,53.73
2022-11-26T20:24:34.717Z,53.50
2022-11-26T20:27:01.234Z,53.31
2022-11-26T20:29:27.572Z,53.45
2022-11-26T20:31:53.922Z,53.38
2022-11-26T20:34:20.981Z,53.58
2022-11-26T20:36:47.383Z,53.83
2022-11-26T20:39:14.271Z,53.84
2022-11-26T20:41:40.606Z,53.91
2022-11-26T20:44:06.928Z,54.25
2022-11-26T20:46:33.375Z,53.81
2022-11-26T20:48:59.720Z,54.03
2022-11-26T20:51:26.037Z,53.89
2022-11-26T20:53:52.483Z,53.86
2022-11-26T20:56:20.044Z,53.83
2022-11-26T20:58:46.368Z,53.78
2022-11-26T21:01:16.563Z,53.86
2022-11-26T21:03:43.378Z,53.92
2022-11-26T21:06:09.705Z,54.09
2022-11-26T21:08:36.473Z,54.19
2022-11-26T21:11:03.356Z,54.21
2022-11-26T21:13:29.656Z,54.44
2022-11-26T21:15:55.973Z,54.17
2022-11-26T21:18:22.290Z,54.46
2022-11-26T21:20:48.618Z,54.40
2022-11-26T21:23:15.000Z,54.35
2022-11-26T21:25:41.680Z,54.38
2022-11-26T21:28:08.062Z,54.63
2022-11-26T21:30:34.424Z,54.14
2022-11-26T21:33:05.827Z,54.79
2022-11-26T21:35:35.296Z,54.13
2022-11-26T21:38:01.611Z,54.50
2022-11-26T21:40:28.008Z,54.32
2022-11-26T21:42:54.346Z,54.81
2022-11-26T21:45:20.710Z,54.29
2022-11-26T21:47:49.009Z,54.62
2022-11-26T21:50:15.359Z,54.20
2022-11-26T21:52:41.673Z,54.83
2022-11-26T21:55:08.116Z,54.43
2022-11-26T21:57:34.431Z,54.59
2022-11-26T22:00:00.819Z,54.73
2022-11-26T22:02:27.198Z,54.76
2022-11-26T22:04:53.608Z,54.82
2022-11-26T22:07:20.273Z,54.43
2022-11-26T22:09:46.885Z,55.03
2022-11-26T22:12:13.208Z,54.67
2022-11-26T22:14:39.526Z,54.93
2022-11-26T22:17:05.840Z,54.57
2022-11-26T22:19:32.205Z,55.04
2022-11-26T22:21:58.524Z,55.07
2022-11-26T22:24:24.851Z,54.78
2022-11-26T22:26:51.381Z,54.58
2022-11-26T22:29:19.247Z,54.90
2022-11-26T22:31:45.676Z,54.77
2022-11-26T22:34:12.778Z,54.90
2022-11-26T22:36:39.228Z,55.07
2022-11-26T22:39:06.327Z,54.86
2022-11-26T22:41:32.758Z,54.84
2022-11-26T22:43:59.875Z,54.76
2022-11-26T22:46:26.252Z,54.86
2022-11-26T22:48:53.289Z,54.91
2022-11-26T22:51:19.672Z,54.86
2022-11-26T22:53:49.479Z,55.02
2022-11-26T22:56:15.797Z,55.00
2022-11-26T22:58:42.141Z,54.76
2022-11-26T23:01:08.479Z,54.89
2022-11-26T23:03:35.465Z,55.07
2022-11-26T23:06:02.559Z,55.08
2022-11-26T23:08:28.876Z,54.87
2022-11-26T23:10:55.192Z,55.18
2022-11-26T23:13:21.500Z,55.23
2022-11-26T23:15:47.903Z,55.29
2022-11-26T23:18:14.687Z,54.95
2022-11-26T23:20:41.135Z,55.23
2022-11-26T23:23:07.461Z,54.97
2022-11-26T23:25:36.917Z,55.30
2022-11-26T23:28:03.257Z,55.21
2022-11-26T23:30:29.620Z,55.06
2022-11-26T23:32:55.938Z,55.25
2022-11-26T23:35:22.275Z,55.27
2022-11-26T23:37:48.610Z,55.00
2022-11-26T23:40:15.161Z,55.15
2022-11-26T23:42:41.521Z,54.97
2022-11-26T23:45:08.219Z,55.14
2022-11-26T23:47:35.044Z,54.99
2022-11-26T23:50:01.569Z,55.38
2022-11-26T23:52:27.934Z,55.36
2022-11-26T23:54:54.253Z,55.24
2022-11-26T23:57:20.575Z,55.12
2022-11-26T23:59:46.898Z,55.13
